sensor_id;sensor_type;location;lat;lon;timestamp;P1;durP1;ratioP1;P2;durP2;ratioP2
60730;SDS011;46580;52.114;11.674;2023-04-06T00:00:11;4.87;;;2.13;;
60730;SDS011;46580;52.114;11.674;2023-04-06T00:02:37;3.90;;;1.47;;
60730;SDS011;46580;52.114;11.674;2023-04-06T00:05:02;2.80;;;1.83;;
60730;SDS011;46580;52.114;11.674;2023-04-06T00:07:28;3.37;;;1.97;;
60730;SDS011;46580;52.114;11.674;2023-04-06T00:09:54;3.70;;;2.00;;
60730;SDS011;46580;52.114;11.674;2023-04-06T00:12:20;3.93;;;1.80;;
60730;SDS011;46580;52.114;11.674;2023-04-06T00:14:45;4.80;;;1.73;;
60730;SDS011;46580;52.114;11.674;2023-04-06T00:17:10;1.70;;;1.50;;
60730;SDS011;46580;52.114;11.674;2023-04-06T00:19:36;2.20;;;1.70;;
60730;SDS011;46580;52.114;11.674;2023-04-06T00:22:02;2.97;;;1.60;;
60730;SDS011;46580;52.114;11.674;2023-04-06T00:24:27;4.70;;;1.93;;
60730;SDS011;46580;52.114;11.674;2023-04-06T00:26:52;2.43;;;1.50;;
60730;SDS011;46580;52.114;11.674;2023-04-06T00:29:18;4.73;;;1.80;;
60730;SDS011;46580;52.114;11.674;2023-04-06T00:31:43;3.23;;;1.97;;
60730;SDS011;46580;52.114;11.674;2023-04-06T00:34:09;5.17;;;2.20;;
60730;SDS011;46580;52.114;11.674;2023-04-06T00:36:35;2.87;;;1.83;;
60730;SDS011;46580;52.114;11.674;2023-04-06T00:39:00;3.77;;;1.83;;
60730;SDS011;46580;52.114;11.674;2023-04-06T00:41:25;2.43;;;1.80;;
60730;SDS011;46580;52.114;11.674;2023-04-06T00:43:51;5.07;;;1.80;;
60730;SDS011;46580;52.114;11.674;2023-04-06T00:46:16;2.83;;;1.73;;
60730;SDS011;46580;52.114;11.674;2023-04-06T00:48:41;3.63;;;1.70;;
60730;SDS011;46580;52.114;11.674;2023-04-06T00:51:07;5.03;;;1.70;;
60730;SDS011;46580;52.114;11.674;2023-04-06T00:53:32;5.20;;;1.83;;
60730;SDS011;46580;52.114;11.674;2023-04-06T00:55:57;2.77;;;1.70;;
60730;SDS011;46580;52.114;11.674;2023-04-06T00:58:23;2.30;;;1.70;;
60730;SDS011;46580;52.114;11.674;2023-04-06T01:00:49;2.50;;;1.73;;
60730;SDS011;46580;52.114;11.674;2023-04-06T01:03:15;3.37;;;2.10;;
60730;SDS011;46580;52.114;11.674;2023-04-06T01:05:40;2.10;;;1.70;;
60730;SDS011;46580;52.114;11.674;2023-04-06T01:08:07;3.63;;;2.00;;
60730;SDS011;46580;52.114;11.674;2023-04-06T01:10:32;2.87;;;1.90;;
60730;SDS011;46580;52.114;11.674;2023-04-06T01:12:58;2.83;;;1.90;;
60730;SDS011;46580;52.114;11.674;2023-04-06T01:15:23;2.80;;;2.07;;
60730;SDS011;46580;52.114;11.674;2023-04-06T01:17:51;1.67;;;1.53;;
60730;SDS011;46580;52.114;11.674;2023-04-06T01:20:16;3.87;;;1.70;;
60730;SDS011;46580;52.114;11.674;2023-04-06T01:22:41;3.03;;;2.10;;
60730;SDS011;46580;52.114;11.674;2023-04-06T01:25:07;4.90;;;2.10;;
60730;SDS011;46580;52.114;11.674;2023-04-06T01:27:33;3.17;;;2.27;;
60730;SDS011;46580;52.114;11.674;2023-04-06T01:29:58;2.93;;;1.83;;
60730;SDS011;46580;52.114;11.674;2023-04-06T01:32:24;3.80;;;2.13;;
60730;SDS011;46580;52.114;11.674;2023-04-06T01:34:49;4.97;;;2.07;;
60730;SDS011;46580;52.114;11.674;2023-04-06T01:37:15;5.20;;;1.90;;
60730;SDS011;46580;52.114;11.674;2023-04-06T01:39:41;3.10;;;2.03;;
60730;SDS011;46580;52.114;11.674;2023-04-06T01:42:08;5.13;;;2.40;;
60730;SDS011;46580;52.114;11.674;2023-04-06T01:44:33;4.93;;;2.40;;
60730;SDS011;46580;52.114;11.674;2023-04-06T01:46:59;3.90;;;2.10;;
60730;SDS011;46580;52.114;11.674;2023-04-06T01:49:24;2.93;;;2.07;;
60730;SDS011;46580;52.114;11.674;2023-04-06T01:51:50;2.37;;;1.70;;
60730;SDS011;46580;52.114;11.674;2023-04-06T01:54:16;3.10;;;2.03;;
60730;SDS011;46580;52.114;11.674;2023-04-06T01:56:42;4.40;;;2.17;;
60730;SDS011;46580;52.114;11.674;2023-04-06T01:59:07;3.33;;;1.97;;
60730;SDS011;46580;52.114;11.674;2023-04-06T02:01:32;3.60;;;2.17;;
60730;SDS011;46580;52.114;11.674;2023-04-06T02:03:57;4.77;;;2.10;;
60730;SDS011;46580;52.114;11.674;2023-04-06T02:06:23;4.10;;;2.03;;
60730;SDS011;46580;52.114;11.674;2023-04-06T02:08:48;2.27;;;1.83;;
60730;SDS011;46580;52.114;11.674;2023-04-06T02:11:14;3.50;;;2.00;;
60730;SDS011;46580;52.114;11.674;2023-04-06T02:13:39;3.27;;;1.87;;
60730;SDS011;46580;52.114;11.674;2023-04-06T02:16:04;3.37;;;1.87;;
60730;SDS011;46580;52.114;11.674;2023-04-06T02:18:30;2.77;;;1.83;;
60730;SDS011;46580;52.114;11.674;2023-04-06T02:20:56;3.03;;;2.07;;
60730;SDS011;46580;52.114;11.674;2023-04-06T02:23:21;2.90;;;1.53;;
60730;SDS011;46580;52.114;11.674;2023-04-06T02:25:46;3.60;;;2.03;;
60730;SDS011;46580;52.114;11.674;2023-04-06T02:28:12;3.57;;;2.20;;
60730;SDS011;46580;52.114;11.674;2023-04-06T02:30:37;4.00;;;1.90;;
60730;SDS011;46580;52.114;11.674;2023-04-06T02:33:03;3.33;;;2.23;;
60730;SDS011;46580;52.114;11.674;2023-04-06T02:35:29;4.07;;;2.10;;
60730;SDS011;46580;52.114;11.674;2023-04-06T02:37:55;4.17;;;2.03;;
60730;SDS011;46580;52.114;11.674;2023-04-06T02:40:21;2.17;;;1.67;;
60730;SDS011;46580;52.114;11.674;2023-04-06T02:42:46;3.63;;;2.30;;
60730;SDS011;46580;52.114;11.674;2023-04-06T02:45:11;2.53;;;1.80;;
60730;SDS011;46580;52.114;11.674;2023-04-06T02:47:37;2.53;;;1.90;;
60730;SDS011;46580;52.114;11.674;2023-04-06T02:50:02;2.73;;;2.00;;
60730;SDS011;46580;52.114;11.674;2023-04-06T02:52:28;4.67;;;2.43;;
60730;SDS011;46580;52.114;11.674;2023-04-06T02:54:53;5.07;;;2.37;;
60730;SDS011;46580;52.114;11.674;2023-04-06T02:57:18;2.50;;;2.07;;
60730;SDS011;46580;52.114;11.674;2023-04-06T02:59:44;4.60;;;2.67;;
60730;SDS011;46580;52.114;11.674;2023-04-06T03:02:09;4.83;;;2.57;;
60730;SDS011;46580;52.114;11.674;2023-04-06T03:04:35;2.30;;;1.97;;
60730;SDS011;46580;52.114;11.674;2023-04-06T03:07:00;3.50;;;2.37;;
60730;SDS011;46580;52.114;11.674;2023-04-06T03:09:25;4.73;;;2.17;;
60730;SDS011;46580;52.114;11.674;2023-04-06T03:11:51;5.30;;;2.50;;
60730;SDS011;46580;52.114;11.674;2023-04-06T03:14:16;5.00;;;2.13;;
60730;SDS011;46580;52.114;11.674;2023-04-06T03:16:46;4.87;;;2.30;;
60730;SDS011;46580;52.114;11.674;2023-04-06T03:19:11;4.73;;;2.83;;
60730;SDS011;46580;52.114;11.674;2023-04-06T03:21:36;5.50;;;2.50;;
60730;SDS011;46580;52.114;11.674;2023-04-06T03:24:02;3.67;;;2.40;;
60730;SDS011;46580;52.114;11.674;2023-04-06T03:26:27;3.33;;;2.50;;
60730;SDS011;46580;52.114;11.674;2023-04-06T03:28:52;4.07;;;2.30;;
60730;SDS011;46580;52.114;11.674;2023-04-06T03:31:18;5.00;;;2.90;;
60730;SDS011;46580;52.114;11.674;2023-04-06T03:33:43;4.97;;;2.57;;
60730;SDS011;46580;52.114;11.674;2023-04-06T03:36:08;4.47;;;2.73;;
60730;SDS011;46580;52.114;11.674;2023-04-06T03:38:34;6.13;;;2.57;;
60730;SDS011;46580;52.114;11.674;2023-04-06T03:40:59;4.67;;;2.73;;
60730;SDS011;46580;52.114;11.674;2023-04-06T03:43:25;6.20;;;2.60;;
60730;SDS011;46580;52.114;11.674;2023-04-06T03:45:50;4.03;;;2.50;;
60730;SDS011;46580;52.114;11.674;2023-04-06T03:48:16;4.80;;;2.60;;
60730;SDS011;46580;52.114;11.674;2023-04-06T03:50:41;5.40;;;2.43;;
60730;SDS011;46580;52.114;11.674;2023-04-06T03:53:06;3.80;;;2.30;;
60730;SDS011;46580;52.114;11.674;2023-04-06T03:55:32;4.77;;;2.57;;
60730;SDS011;46580;52.114;11.674;2023-04-06T03:57:57;3.87;;;2.57;;
60730;SDS011;46580;52.114;11.674;2023-04-06T04:00:22;5.23;;;2.57;;
60730;SDS011;46580;52.114;11.674;2023-04-06T04:02:48;9.23;;;3.37;;
60730;SDS011;46580;52.114;11.674;2023-04-06T04:05:13;5.10;;;2.87;;
60730;SDS011;46580;52.114;11.674;2023-04-06T04:07:38;4.83;;;2.63;;
60730;SDS011;46580;52.114;11.674;2023-04-06T04:10:05;5.17;;;2.23;;
60730;SDS011;46580;52.114;11.674;2023-04-06T04:12:31;4.03;;;2.27;;
60730;SDS011;46580;52.114;11.674;2023-04-06T04:14:56;6.03;;;3.00;;
60730;SDS011;46580;52.114;11.674;2023-04-06T04:17:21;4.20;;;3.17;;
60730;SDS011;46580;52.114;11.674;2023-04-06T04:19:47;4.13;;;2.57;;
60730;SDS011;46580;52.114;11.674;2023-04-06T04:22:12;3.90;;;2.80;;
60730;SDS011;46580;52.114;11.674;2023-04-06T04:24:37;4.87;;;3.03;;
60730;SDS011;46580;52.114;11.674;2023-04-06T04:27:03;4.50;;;2.80;;
60730;SDS011;46580;52.114;11.674;2023-04-06T04:29:29;3.90;;;2.67;;
60730;SDS011;46580;52.114;11.674;2023-04-06T04:31:55;4.77;;;2.90;;
60730;SDS011;46580;52.114;11.674;2023-04-06T04:34:20;3.83;;;2.63;;
60730;SDS011;46580;52.114;11.674;2023-04-06T04:36:48;8.00;;;3.30;;
60730;SDS011;46580;52.114;11.674;2023-04-06T04:39:13;7.83;;;2.83;;
60730;SDS011;46580;52.114;11.674;2023-04-06T04:41:39;5.47;;;2.90;;
60730;SDS011;46580;52.114;11.674;2023-04-06T04:44:04;3.80;;;1.83;;
60730;SDS011;46580;52.114;11.674;2023-04-06T04:46:30;3.90;;;3.03;;
60730;SDS011;46580;52.114;11.674;2023-04-06T04:48:55;6.10;;;2.87;;
60730;SDS011;46580;52.114;11.674;2023-04-06T04:51:21;5.33;;;2.47;;
60730;SDS011;46580;52.114;11.674;2023-04-06T04:53:46;4.80;;;2.67;;
60730;SDS011;46580;52.114;11.674;2023-04-06T04:56:11;5.93;;;2.87;;
60730;SDS011;46580;52.114;11.674;2023-04-06T04:58:37;4.17;;;2.57;;
60730;SDS011;46580;52.114;11.674;2023-04-06T05:01:02;5.47;;;2.90;;
60730;SDS011;46580;52.114;11.674;2023-04-06T05:03:27;4.70;;;3.13;;
60730;SDS011;46580;52.114;11.674;2023-04-06T05:05:53;3.87;;;2.60;;
60730;SDS011;46580;52.114;11.674;2023-04-06T05:08:18;5.03;;;2.97;;
60730;SDS011;46580;52.114;11.674;2023-04-06T05:10:44;4.83;;;3.03;;
60730;SDS011;46580;52.114;11.674;2023-04-06T05:13:10;5.40;;;3.03;;
60730;SDS011;46580;52.114;11.674;2023-04-06T05:15:35;5.43;;;2.93;;
60730;SDS011;46580;52.114;11.674;2023-04-06T05:18:03;4.17;;;2.93;;
60730;SDS011;46580;52.114;11.674;2023-04-06T05:20:31;4.70;;;3.03;;
60730;SDS011;46580;52.114;11.674;2023-04-06T05:22:57;5.90;;;2.73;;
60730;SDS011;46580;52.114;11.674;2023-04-06T05:25:22;4.70;;;2.97;;
60730;SDS011;46580;52.114;11.674;2023-04-06T05:27:47;2.97;;;2.23;;
60730;SDS011;46580;52.114;11.674;2023-04-06T05:30:13;6.13;;;3.10;;
60730;SDS011;46580;52.114;11.674;2023-04-06T05:32:38;6.80;;;3.07;;
60730;SDS011;46580;52.114;11.674;2023-04-06T05:35:04;10.00;;;3.30;;
60730;SDS011;46580;52.114;11.674;2023-04-06T05:37:29;5.77;;;2.83;;
60730;SDS011;46580;52.114;11.674;2023-04-06T05:39:55;5.07;;;3.20;;
60730;SDS011;46580;52.114;11.674;2023-04-06T05:42:20;3.97;;;3.17;;
60730;SDS011;46580;52.114;11.674;2023-04-06T05:44:46;5.67;;;3.03;;
60730;SDS011;46580;52.114;11.674;2023-04-06T05:47:11;7.83;;;3.03;;
60730;SDS011;46580;52.114;11.674;2023-04-06T05:49:36;4.27;;;2.87;;
60730;SDS011;46580;52.114;11.674;2023-04-06T05:52:02;4.03;;;3.07;;
60730;SDS011;46580;52.114;11.674;2023-04-06T05:54:27;3.70;;;2.83;;
60730;SDS011;46580;52.114;11.674;2023-04-06T05:56:53;6.87;;;3.10;;
60730;SDS011;46580;52.114;11.674;2023-04-06T05:59:18;5.10;;;3.37;;
60730;SDS011;46580;52.114;11.674;2023-04-06T06:01:43;5.47;;;3.90;;
60730;SDS011;46580;52.114;11.674;2023-04-06T06:04:09;8.80;;;4.50;;
60730;SDS011;46580;52.114;11.674;2023-04-06T06:06:34;5.83;;;3.60;;
60730;SDS011;46580;52.114;11.674;2023-04-06T06:09:00;5.47;;;3.30;;
60730;SDS011;46580;52.114;11.674;2023-04-06T06:11:26;5.57;;;3.80;;
60730;SDS011;46580;52.114;11.674;2023-04-06T06:13:52;5.40;;;3.97;;
60730;SDS011;46580;52.114;11.674;2023-04-06T06:16:18;4.27;;;3.20;;
60730;SDS011;46580;52.114;11.674;2023-04-06T06:18:43;6.60;;;3.50;;
60730;SDS011;46580;52.114;11.674;2023-04-06T06:21:09;5.30;;;3.63;;
60730;SDS011;46580;52.114;11.674;2023-04-06T06:23:36;6.77;;;3.80;;
60730;SDS011;46580;52.114;11.674;2023-04-06T06:26:01;6.43;;;4.03;;
60730;SDS011;46580;52.114;11.674;2023-04-06T06:28:27;6.83;;;4.47;;
60730;SDS011;46580;52.114;11.674;2023-04-06T06:30:52;6.90;;;4.53;;
60730;SDS011;46580;52.114;11.674;2023-04-06T06:33:17;7.20;;;4.00;;
60730;SDS011;46580;52.114;11.674;2023-04-06T06:35:43;7.87;;;4.17;;
60730;SDS011;46580;52.114;11.674;2023-04-06T06:38:08;7.60;;;4.10;;
60730;SDS011;46580;52.114;11.674;2023-04-06T06:40:33;5.90;;;3.93;;
60730;SDS011;46580;52.114;11.674;2023-04-06T06:42:59;8.80;;;4.67;;
60730;SDS011;46580;52.114;11.674;2023-04-06T06:45:24;9.53;;;4.23;;
60730;SDS011;46580;52.114;11.674;2023-04-06T06:47:50;8.10;;;4.40;;
60730;SDS011;46580;52.114;11.674;2023-04-06T06:50:16;8.10;;;4.70;;
60730;SDS011;46580;52.114;11.674;2023-04-06T06:52:43;6.50;;;4.10;;
60730;SDS011;46580;52.114;11.674;2023-04-06T06:55:09;8.40;;;3.97;;
60730;SDS011;46580;52.114;11.674;2023-04-06T06:57:35;8.07;;;4.37;;
60730;SDS011;46580;52.114;11.674;2023-04-06T07:00:01;6.50;;;4.37;;
60730;SDS011;46580;52.114;11.674;2023-04-06T07:02:26;4.43;;;3.97;;
60730;SDS011;46580;52.114;11.674;2023-04-06T07:04:52;6.53;;;4.23;;
60730;SDS011;46580;52.114;11.674;2023-04-06T07:07:17;8.27;;;4.43;;
60730;SDS011;46580;52.114;11.674;2023-04-06T07:09:43;5.10;;;4.57;;
60730;SDS011;46580;52.114;11.674;2023-04-06T07:12:08;9.10;;;5.00;;
60730;SDS011;46580;52.114;11.674;2023-04-06T07:14:33;7.83;;;5.20;;
60730;SDS011;46580;52.114;11.674;2023-04-06T07:16:58;8.03;;;4.63;;
60730;SDS011;46580;52.114;11.674;2023-04-06T07:19:24;8.47;;;4.53;;
60730;SDS011;46580;52.114;11.674;2023-04-06T07:21:49;5.87;;;4.50;;
60730;SDS011;46580;52.114;11.674;2023-04-06T07:24:15;5.03;;;4.37;;
60730;SDS011;46580;52.114;11.674;2023-04-06T07:26:42;5.73;;;4.30;;
60730;SDS011;46580;52.114;11.674;2023-04-06T07:29:07;6.20;;;4.50;;
60730;SDS011;46580;52.114;11.674;2023-04-06T07:31:33;6.90;;;4.40;;
60730;SDS011;46580;52.114;11.674;2023-04-06T07:34:00;7.03;;;4.70;;
60730;SDS011;46580;52.114;11.674;2023-04-06T07:36:25;7.07;;;4.13;;
60730;SDS011;46580;52.114;11.674;2023-04-06T07:38:51;6.20;;;4.77;;
60730;SDS011;46580;52.114;11.674;2023-04-06T07:41:16;8.87;;;4.70;;
60730;SDS011;46580;52.114;11.674;2023-04-06T07:43:41;6.40;;;4.70;;
60730;SDS011;46580;52.114;11.674;2023-04-06T07:46:07;9.30;;;5.23;;
60730;SDS011;46580;52.114;11.674;2023-04-06T07:48:33;6.93;;;4.83;;
60730;SDS011;46580;52.114;11.674;2023-04-06T07:51:02;5.77;;;4.63;;
60730;SDS011;46580;52.114;11.674;2023-04-06T07:53:28;9.23;;;4.93;;
60730;SDS011;46580;52.114;11.674;2023-04-06T07:55:54;6.23;;;4.93;;
60730;SDS011;46580;52.114;11.674;2023-04-06T07:58:20;9.37;;;5.37;;
60730;SDS011;46580;52.114;11.674;2023-04-06T08:00:46;9.40;;;5.17;;
60730;SDS011;46580;52.114;11.674;2023-04-06T08:03:11;7.63;;;5.20;;
60730;SDS011;46580;52.114;11.674;2023-04-06T08:05:36;9.03;;;5.37;;
60730;SDS011;46580;52.114;11.674;2023-04-06T08:08:01;7.80;;;5.47;;
60730;SDS011;46580;52.114;11.674;2023-04-06T08:10:27;7.57;;;5.53;;
60730;SDS011;46580;52.114;11.674;2023-04-06T08:12:53;7.13;;;5.00;;
60730;SDS011;46580;52.114;11.674;2023-04-06T08:15:18;10.27;;;5.17;;
60730;SDS011;46580;52.114;11.674;2023-04-06T08:17:44;9.37;;;5.20;;
60730;SDS011;46580;52.114;11.674;2023-04-06T08:20:10;8.90;;;5.53;;
60730;SDS011;46580;52.114;11.674;2023-04-06T08:22:36;8.53;;;5.53;;
60730;SDS011;46580;52.114;11.674;2023-04-06T08:25:01;8.63;;;6.10;;
60730;SDS011;46580;52.114;11.674;2023-04-06T08:27:26;8.63;;;5.53;;
60730;SDS011;46580;52.114;11.674;2023-04-06T08:29:52;8.20;;;5.70;;
60730;SDS011;46580;52.114;11.674;2023-04-06T08:32:17;6.57;;;4.83;;
60730;SDS011;46580;52.114;11.674;2023-04-06T08:34:43;6.67;;;5.30;;
60730;SDS011;46580;52.114;11.674;2023-04-06T08:37:08;7.50;;;5.00;;
60730;SDS011;46580;52.114;11.674;2023-04-06T08:39:33;6.30;;;4.83;;
60730;SDS011;46580;52.114;11.674;2023-04-06T08:41:59;7.57;;;5.07;;
60730;SDS011;46580;52.114;11.674;2023-04-06T08:44:27;6.53;;;4.73;;
60730;SDS011;46580;52.114;11.674;2023-04-06T08:46:54;7.20;;;4.87;;
60730;SDS011;46580;52.114;11.674;2023-04-06T08:49:19;9.60;;;5.30;;
60730;SDS011;46580;52.114;11.674;2023-04-06T08:51:45;6.43;;;5.17;;
60730;SDS011;46580;52.114;11.674;2023-04-06T08:54:11;7.77;;;5.27;;
60730;SDS011;46580;52.114;11.674;2023-04-06T08:56:37;7.87;;;5.30;;
60730;SDS011;46580;52.114;11.674;2023-04-06T08:59:04;6.50;;;5.60;;
60730;SDS011;46580;52.114;11.674;2023-04-06T09:01:30;10.13;;;5.70;;
60730;SDS011;46580;52.114;11.674;2023-04-06T09:03:58;6.13;;;4.83;;
60730;SDS011;46580;52.114;11.674;2023-04-06T09:06:25;9.27;;;5.73;;
60730;SDS011;46580;52.114;11.674;2023-04-06T09:08:55;9.80;;;5.33;;
60730;SDS011;46580;52.114;11.674;2023-04-06T09:11:21;6.97;;;5.93;;
60730;SDS011;46580;52.114;11.674;2023-04-06T09:13:48;8.17;;;5.50;;
60730;SDS011;46580;52.114;11.674;2023-04-06T09:16:14;8.87;;;5.43;;
60730;SDS011;46580;52.114;11.674;2023-04-06T09:18:40;8.17;;;5.40;;
60730;SDS011;46580;52.114;11.674;2023-04-06T09:21:07;6.87;;;5.17;;
60730;SDS011;46580;52.114;11.674;2023-04-06T09:23:33;7.63;;;5.07;;
60730;SDS011;46580;52.114;11.674;2023-04-06T09:26:05;8.83;;;5.80;;
60730;SDS011;46580;52.114;11.674;2023-04-06T09:28:49;9.53;;;5.60;;
60730;SDS011;46580;52.114;11.674;2023-04-06T09:31:17;6.13;;;5.20;;
60730;SDS011;46580;52.114;11.674;2023-04-06T09:33:47;6.33;;;5.20;;
60730;SDS011;46580;52.114;11.674;2023-04-06T09:36:12;6.43;;;5.10;;
60730;SDS011;46580;52.114;11.674;2023-04-06T09:41:26;8.83;;;5.20;;
60730;SDS011;46580;52.114;11.674;2023-04-06T09:44:03;5.53;;;4.63;;
60730;SDS011;46580;52.114;11.674;2023-04-06T09:46:39;6.67;;;4.90;;
60730;SDS011;46580;52.114;11.674;2023-04-06T09:49:06;8.07;;;5.43;;
60730;SDS011;46580;52.114;11.674;2023-04-06T09:52:14;9.37;;;5.50;;
60730;SDS011;46580;52.114;11.674;2023-04-06T09:54:28;7.37;;;5.27;;
60730;SDS011;46580;52.114;11.674;2023-04-06T09:57:03;7.17;;;5.30;;
60730;SDS011;46580;52.114;11.674;2023-04-06T09:59:54;9.37;;;5.80;;
60730;SDS011;46580;52.114;11.674;2023-04-06T10:02:41;7.40;;;5.70;;
60730;SDS011;46580;52.114;11.674;2023-04-06T10:07:45;7.40;;;5.27;;
60730;SDS011;46580;52.114;11.674;2023-04-06T10:10:13;8.07;;;6.07;;
60730;SDS011;46580;52.114;11.674;2023-04-06T10:12:39;9.20;;;5.60;;
60730;SDS011;46580;52.114;11.674;2023-04-06T10:15:06;8.77;;;5.13;;
60730;SDS011;46580;52.114;11.674;2023-04-06T10:17:33;8.73;;;5.70;;
60730;SDS011;46580;52.114;11.674;2023-04-06T10:20:14;9.07;;;5.50;;
60730;SDS011;46580;52.114;11.674;2023-04-06T10:25:26;7.83;;;4.93;;
60730;SDS011;46580;52.114;11.674;2023-04-06T10:30:26;6.33;;;4.60;;
60730;SDS011;46580;52.114;11.674;2023-04-06T10:32:53;6.80;;;4.57;;
60730;SDS011;46580;52.114;11.674;2023-04-06T10:35:18;8.30;;;5.03;;
60730;SDS011;46580;52.114;11.674;2023-04-06T10:37:47;7.17;;;5.37;;
60730;SDS011;46580;52.114;11.674;2023-04-06T10:40:35;6.00;;;4.77;;
60730;SDS011;46580;52.114;11.674;2023-04-06T10:43:08;6.37;;;4.90;;
60730;SDS011;46580;52.114;11.674;2023-04-06T10:45:37;11.63;;;5.73;;
60730;SDS011;46580;52.114;11.674;2023-04-06T10:48:16;6.27;;;5.07;;
60730;SDS011;46580;52.114;11.674;2023-04-06T10:50:49;8.00;;;5.40;;
60730;SDS011;46580;52.114;11.674;2023-04-06T10:53:22;7.63;;;5.47;;
60730;SDS011;46580;52.114;11.674;2023-04-06T10:55:53;7.93;;;5.57;;
60730;SDS011;46580;52.114;11.674;2023-04-06T10:58:20;7.30;;;4.90;;
60730;SDS011;46580;52.114;11.674;2023-04-06T11:00:49;8.80;;;4.63;;
60730;SDS011;46580;52.114;11.674;2023-04-06T11:03:15;8.87;;;5.80;;
60730;SDS011;46580;52.114;11.674;2023-04-06T11:05:48;9.73;;;5.30;;
60730;SDS011;46580;52.114;11.674;2023-04-06T11:08:24;10.10;;;5.50;;
60730;SDS011;46580;52.114;11.674;2023-04-06T11:10:50;9.43;;;5.57;;
60730;SDS011;46580;52.114;11.674;2023-04-06T11:13:16;7.50;;;5.57;;
60730;SDS011;46580;52.114;11.674;2023-04-06T11:15:42;9.37;;;6.13;;
60730;SDS011;46580;52.114;11.674;2023-04-06T11:18:07;8.63;;;6.40;;
60730;SDS011;46580;52.114;11.674;2023-04-06T11:20:32;10.97;;;6.30;;
60730;SDS011;46580;52.114;11.674;2023-04-06T11:22:58;9.10;;;6.00;;
60730;SDS011;46580;52.114;11.674;2023-04-06T11:25:24;12.87;;;6.40;;
60730;SDS011;46580;52.114;11.674;2023-04-06T11:27:52;9.47;;;5.60;;
60730;SDS011;46580;52.114;11.674;2023-04-06T11:30:18;9.77;;;5.77;;
60730;SDS011;46580;52.114;11.674;2023-04-06T11:32:44;9.57;;;5.57;;
60730;SDS011;46580;52.114;11.674;2023-04-06T11:35:11;10.60;;;6.77;;
60730;SDS011;46580;52.114;11.674;2023-04-06T11:37:47;11.13;;;5.90;;
60730;SDS011;46580;52.114;11.674;2023-04-06T11:40:14;9.23;;;6.63;;
60730;SDS011;46580;52.114;11.674;2023-04-06T11:42:39;14.97;;;7.37;;
60730;SDS011;46580;52.114;11.674;2023-04-06T11:45:06;10.23;;;6.47;;
60730;SDS011;46580;52.114;11.674;2023-04-06T11:47:33;9.27;;;7.20;;
60730;SDS011;46580;52.114;11.674;2023-04-06T11:50:09;8.30;;;6.23;;
60730;SDS011;46580;52.114;11.674;2023-04-06T11:52:38;9.67;;;6.57;;
60730;SDS011;46580;52.114;11.674;2023-04-06T11:55:12;8.03;;;5.97;;
60730;SDS011;46580;52.114;11.674;2023-04-06T11:57:38;9.17;;;6.87;;
60730;SDS011;46580;52.114;11.674;2023-04-06T12:00:04;11.27;;;7.07;;
60730;SDS011;46580;52.114;11.674;2023-04-06T12:02:31;10.67;;;6.50;;
60730;SDS011;46580;52.114;11.674;2023-04-06T12:04:57;9.00;;;7.17;;
60730;SDS011;46580;52.114;11.674;2023-04-06T12:07:22;12.67;;;6.43;;
60730;SDS011;46580;52.114;11.674;2023-04-06T12:09:48;8.43;;;6.27;;
60730;SDS011;46580;52.114;11.674;2023-04-06T12:12:13;10.50;;;6.77;;
60730;SDS011;46580;52.114;11.674;2023-04-06T12:14:38;9.10;;;6.90;;
60730;SDS011;46580;52.114;11.674;2023-04-06T12:17:04;9.73;;;6.63;;
60730;SDS011;46580;52.114;11.674;2023-04-06T12:19:30;9.83;;;7.10;;
60730;SDS011;46580;52.114;11.674;2023-04-06T12:21:55;10.83;;;6.83;;
60730;SDS011;46580;52.114;11.674;2023-04-06T12:24:22;8.47;;;6.30;;
60730;SDS011;46580;52.114;11.674;2023-04-06T12:26:48;9.13;;;6.67;;
60730;SDS011;46580;52.114;11.674;2023-04-06T12:29:13;9.73;;;6.60;;
60730;SDS011;46580;52.114;11.674;2023-04-06T12:31:39;8.60;;;6.67;;
60730;SDS011;46580;52.114;11.674;2023-04-06T12:34:05;9.23;;;6.57;;
60730;SDS011;46580;52.114;11.674;2023-04-06T12:36:31;8.50;;;6.40;;
60730;SDS011;46580;52.114;11.674;2023-04-06T12:38:57;9.03;;;6.57;;
60730;SDS011;46580;52.114;11.674;2023-04-06T12:41:23;9.50;;;6.17;;
60730;SDS011;46580;52.114;11.674;2023-04-06T12:43:49;9.47;;;6.37;;
60730;SDS011;46580;52.114;11.674;2023-04-06T12:46:15;12.97;;;6.20;;
60730;SDS011;46580;52.114;11.674;2023-04-06T12:48:40;9.80;;;6.60;;
60730;SDS011;46580;52.114;11.674;2023-04-06T12:51:06;9.83;;;7.03;;
60730;SDS011;46580;52.114;11.674;2023-04-06T12:53:32;12.37;;;6.70;;
60730;SDS011;46580;52.114;11.674;2023-04-06T12:55:58;9.13;;;6.90;;
60730;SDS011;46580;52.114;11.674;2023-04-06T12:58:24;10.77;;;6.60;;
60730;SDS011;46580;52.114;11.674;2023-04-06T13:00:57;8.00;;;5.87;;
60730;SDS011;46580;52.114;11.674;2023-04-06T13:03:27;7.70;;;5.57;;
60730;SDS011;46580;52.114;11.674;2023-04-06T13:05:52;13.33;;;6.10;;
60730;SDS011;46580;52.114;11.674;2023-04-06T13:08:18;9.70;;;6.07;;
60730;SDS011;46580;52.114;11.674;2023-04-06T13:10:48;7.67;;;6.23;;
60730;SDS011;46580;52.114;11.674;2023-04-06T13:13:15;8.87;;;6.03;;
60730;SDS011;46580;52.114;11.674;2023-04-06T13:15:41;7.53;;;6.00;;
60730;SDS011;46580;52.114;11.674;2023-04-06T13:18:07;8.93;;;6.30;;
60730;SDS011;46580;52.114;11.674;2023-04-06T13:20:33;8.23;;;6.00;;
60730;SDS011;46580;52.114;11.674;2023-04-06T13:22:58;9.10;;;6.27;;
60730;SDS011;46580;52.114;11.674;2023-04-06T13:25:23;9.47;;;6.27;;
60730;SDS011;46580;52.114;11.674;2023-04-06T13:27:49;10.23;;;6.60;;
60730;SDS011;46580;52.114;11.674;2023-04-06T13:30:15;11.30;;;5.80;;
60730;SDS011;46580;52.114;11.674;2023-04-06T13:32:41;8.40;;;6.30;;
60730;SDS011;46580;52.114;11.674;2023-04-06T13:35:06;8.07;;;5.90;;
60730;SDS011;46580;52.114;11.674;2023-04-06T13:37:33;9.67;;;5.97;;
60730;SDS011;46580;52.114;11.674;2023-04-06T13:39:59;8.37;;;5.87;;
60730;SDS011;46580;52.114;11.674;2023-04-06T13:42:24;8.20;;;5.70;;
60730;SDS011;46580;52.114;11.674;2023-04-06T13:44:49;6.87;;;5.60;;
60730;SDS011;46580;52.114;11.674;2023-04-06T13:47:15;7.37;;;5.40;;
60730;SDS011;46580;52.114;11.674;2023-04-06T13:49:42;7.70;;;5.30;;
60730;SDS011;46580;52.114;11.674;2023-04-06T13:52:07;10.27;;;5.70;;
60730;SDS011;46580;52.114;11.674;2023-04-06T13:54:34;9.03;;;6.30;;
60730;SDS011;46580;52.114;11.674;2023-04-06T13:57:00;9.03;;;6.40;;
60730;SDS011;46580;52.114;11.674;2023-04-06T13:59:31;8.17;;;5.80;;
60730;SDS011;46580;52.114;11.674;2023-04-06T14:01:57;7.53;;;6.03;;
60730;SDS011;46580;52.114;11.674;2023-04-06T14:04:22;8.33;;;6.00;;
60730;SDS011;46580;52.114;11.674;2023-04-06T14:06:47;6.57;;;5.70;;
60730;SDS011;46580;52.114;11.674;2023-04-06T14:09:13;9.27;;;6.50;;
60730;SDS011;46580;52.114;11.674;2023-04-06T14:11:38;8.83;;;6.10;;
60730;SDS011;46580;52.114;11.674;2023-04-06T14:14:03;7.40;;;5.60;;
60730;SDS011;46580;52.114;11.674;2023-04-06T14:16:28;8.53;;;5.77;;
60730;SDS011;46580;52.114;11.674;2023-04-06T14:18:54;9.13;;;6.10;;
60730;SDS011;46580;52.114;11.674;2023-04-06T14:21:22;9.53;;;6.07;;
60730;SDS011;46580;52.114;11.674;2023-04-06T14:23:48;7.93;;;6.20;;
60730;SDS011;46580;52.114;11.674;2023-04-06T14:26:13;7.47;;;5.60;;
60730;SDS011;46580;52.114;11.674;2023-04-06T14:28:38;10.67;;;6.37;;
60730;SDS011;46580;52.114;11.674;2023-04-06T14:31:14;9.37;;;6.70;;
60730;SDS011;46580;52.114;11.674;2023-04-06T14:33:41;7.03;;;5.17;;
60730;SDS011;46580;52.114;11.674;2023-04-06T14:36:07;11.70;;;5.50;;
60730;SDS011;46580;52.114;11.674;2023-04-06T14:38:33;8.23;;;5.60;;